Time;durP1;ratioP1;P1;durP2;ratioP2;P2;SDS_P1;SDS_P2;PMS_P1;PMS_P2;Temp;Humidity;BMP_temperature;BMP_pressure;BME280_temperature;BME280_humidity;BME280_pressure;Samples;Min_cycle;Max_cycle;Signal;HPM_P1;HPM_P2
2022/09/02 00:00:13;;;;;;;;;2.00;2.00;;;;;23.28;47.11;101594.23;111055;1262;12965;-84
2022/09/02 00:03:00;;;;;;;;;3.67;3.00;;;;;23.28;47.01;101599.54;111054;1262;13020;-85
2022/09/02 00:05:27;;;;;;;;;2.00;2.00;;;;;23.27;46.99;101596.20;111023;1262;13056;-85
2022/09/02 00:07:55;;;;;;;;;1.00;1.00;;;;;23.27;46.97;101591.79;111017;1262;13195;-85
2022/09/02 00:10:22;;;;;;;;;1.33;1.33;;;;;23.27;47.09;101588.36;111049;1262;12275;-85
2022/09/02 00:12:49;;;;;;;;;2.00;2.00;;;;;23.28;46.96;101591.37;111068;1262;13164;-86
2022/09/02 00:15:17;;;;;;;;;1.00;1.00;;;;;23.27;46.85;101589.09;110987;1262;13491;-84
2022/09/02 00:17:44;;;;;;;;;2.00;2.00;;;;;23.28;46.94;101589.39;111086;1262;16253;-86
2022/09/02 00:20:12;;;;;;;;;2.00;2.00;;;;;23.29;46.88;101588.86;111082;1262;12860;-85
2022/09/02 00:22:39;;;;;;;;;2.00;2.00;;;;;23.29;46.88;101585.62;111090;1264;12972;-86
2022/09/02 00:25:07;;;;;;;;;2.00;2.00;;;;;23.29;46.84;101581.71;111082;1262;16763;-85
2022/09/02 00:27:34;;;;;;;;;1.67;1.67;;;;;23.28;46.80;101582.20;111041;1262;13520;-84
2022/09/02 00:30:02;;;;;;;;;2.00;2.00;;;;;23.28;46.79;101584.94;111061;1262;13170;-85
2022/09/02 00:32:29;;;;;;;;;2.00;2.00;;;;;23.28;46.78;101585.14;111032;1262;12852;-85
2022/09/02 00:34:57;;;;;;;;;2.00;2.00;;;;;23.27;46.84;101583.78;111024;1262;13098;-84
2022/09/02 00:37:25;;;;;;;;;2.00;2.00;;;;;23.29;46.71;101585.58;111164;1262;12793;-85
2022/09/02 00:39:53;;;;;;;;;3.67;2.67;;;;;23.30;46.65;101585.11;111120;1261;13167;-86
2022/09/02 00:42:20;;;;;;;;;2.00;2.00;;;;;23.29;46.57;101587.09;111072;1262;13077;-85
2022/09/02 00:44:47;;;;;;;;;2.00;2.00;;;;;23.29;46.68;101582.88;111088;1262;13052;-84
2022/09/02 00:47:15;;;;;;;;;5.00;2.00;;;;;23.28;46.66;101582.00;111099;1262;12943;-84
2022/09/02 00:49:42;;;;;;;;;2.00;2.00;;;;;23.29;46.55;101580.66;111084;1261;13079;-84
2022/09/02 00:52:09;;;;;;;;;1.67;1.67;;;;;23.29;46.59;101584.36;111117;1262;13073;-84
2022/09/02 00:54:37;;;;;;;;;2.00;2.00;;;;;23.28;46.70;101580.35;111014;1262;12790;-85
2022/09/02 00:57:04;;;;;;;;;3.00;2.00;;;;;23.29;46.59;101578.98;111035;1262;13036;-85
2022/09/02 00:59:31;;;;;;;;;3.00;3.00;;;;;23.29;46.63;101580.83;110974;1260;12985;-84
2022/09/02 01:01:58;;;;;;;;;2.00;2.00;;;;;23.28;46.65;101575.98;111029;1261;12878;-85
2022/09/02 01:04:26;;;;;;;;;1.00;1.00;;;;;23.28;46.64;101580.15;111158;1262;12528;-82
2022/09/02 01:06:53;;;;;;;;;2.00;2.00;;;;;23.28;46.50;101582.00;111792;1262;13101;-84
2022/09/02 01:09:22;;;;;;;;;1.00;1.00;;;;;23.27;46.48;101583.41;111716;1262;13289;-83
2022/09/02 01:11:52;;;;;;;;;2.00;2.00;;;;;23.28;46.50;101584.05;111086;1262;13240;-84
2022/09/02 01:14:19;;;;;;;;;2.00;2.00;;;;;23.29;46.45;101584.86;111119;1262;12735;-84
2022/09/02 01:16:46;;;;;;;;;2.00;2.00;;;;;23.29;46.52;101581.00;111029;1261;13045;-86
2022/09/02 01:19:14;;;;;;;;;2.00;2.00;;;;;23.28;46.49;101584.43;111090;1262;12921;-86
2022/09/02 01:21:41;;;;;;;;;3.00;3.00;;;;;23.29;46.46;101587.81;111081;1262;13001;-86
2022/09/02 01:24:08;;;;;;;;;3.00;3.00;;;;;23.28;46.45;101582.61;111095;1262;13151;-86
2022/09/02 01:26:35;;;;;;;;;3.00;3.00;;;;;23.27;46.41;101588.95;111067;1262;13055;-84
2022/09/02 01:29:03;;;;;;;;;2.00;2.00;;;;;23.28;46.47;101594.24;111037;1262;12944;-85
2022/09/02 01:31:30;;;;;;;;;2.00;2.00;;;;;23.28;46.41;101591.92;111000;1262;13076;-85
2022/09/02 01:33:58;;;;;;;;;2.33;2.00;;;;;23.28;46.53;101592.26;111044;1262;13212;-86
2022/09/02 01:36:25;;;;;;;;;2.00;2.00;;;;;23.28;46.55;101592.46;111107;1262;13089;-86
2022/09/02 01:38:53;;;;;;;;;2.00;2.00;;;;;23.28;46.46;101595.13;111100;1262;13089;-85
2022/09/02 01:41:20;;;;;;;;;2.00;2.00;;;;;23.28;46.55;101590.99;111087;1262;13227;-85
2022/09/02 01:43:47;;;;;;;;;3.00;2.67;;;;;23.28;46.51;101594.10;111103;1262;13760;-84
2022/09/02 01:46:14;;;;;;;;;2.00;2.00;;;;;23.28;46.57;101591.41;111122;1261;13191;-85
2022/09/02 01:48:42;;;;;;;;;2.67;2.00;;;;;23.29;46.55;101593.71;111105;1261;13034;-86
2022/09/02 01:51:09;;;;;;;;;2.00;2.00;;;;;23.29;46.47;101590.30;111089;1261;13197;-85
2022/09/02 01:53:36;;;;;;;;;3.00;3.00;;;;;23.28;46.49;101591.84;111117;1261;13055;-84
2022/09/02 01:56:04;;;;;;;;;3.00;3.00;;;;;23.30;46.54;101593.70;111092;1262;13084;-86
2022/09/02 01:58:31;;;;;;;;;2.33;2.33;;;;;23.30;46.40;101590.74;111116;1262;12983;-85
2022/09/02 02:00:58;;;;;;;;;5.00;5.00;;;;;23.29;46.34;101587.09;111082;1262;13227;-84
2022/09/02 02:03:26;;;;;;;;;3.00;3.00;;;;;23.28;46.38;101589.66;110994;1262;13895;-84
2022/09/02 02:05:54;;;;;;;;;2.00;2.00;;;;;23.29;46.38;101591.60;111109;1262;13184;-85
2022/09/02 02:08:21;;;;;;;;;3.00;3.00;;;;;23.30;46.39;101593.31;111065;1262;13266;-85
2022/09/02 02:10:49;;;;;;;;;3.00;2.67;;;;;23.30;46.40;101591.15;111047;1262;13045;-85
2022/09/02 02:13:16;;;;;;;;;2.00;2.00;;;;;23.29;46.36;101593.58;111053;1262;13535;-85
2022/09/02 02:15:43;;;;;;;;;2.00;2.00;;;;;23.30;46.33;101591.15;111009;1262;13148;-86
2022/09/02 02:18:11;;;;;;;;;3.00;2.00;;;;;23.30;46.25;101591.33;111080;1262;13175;-87
2022/09/02 02:20:38;;;;;;;;;3.00;2.00;;;;;23.29;46.29;101592.83;111114;1262;13242;-86
2022/09/02 02:23:05;;;;;;;;;2.00;2.00;;;;;23.29;46.31;101593.02;111075;1262;12970;-85
2022/09/02 02:25:33;;;;;;;;;2.33;2.33;;;;;23.30;46.30;101598.62;111090;1262;12991;-86
2022/09/02 02:28:00;;;;;;;;;2.00;2.00;;;;;23.29;46.25;101595.64;111061;1262;12591;-86
2022/09/02 02:30:27;;;;;;;;;2.00;2.00;;;;;23.28;46.20;101597.77;111050;1262;13214;-84
2022/09/02 02:32:54;;;;;;;;;2.00;2.00;;;;;23.28;46.17;101598.27;111063;1262;13157;-84
2022/09/02 02:35:22;;;;;;;;;2.00;2.00;;;;;23.28;46.17;101596.13;110973;1262;13171;-85
2022/09/02 02:37:49;;;;;;;;;2.00;2.00;;;;;23.28;46.13;101596.63;111018;1262;13135;-86
2022/09/02 02:40:16;;;;;;;;;2.33;2.33;;;;;23.28;46.16;101594.32;111107;1262;13029;-85
2022/09/02 02:42:44;;;;;;;;;2.00;2.00;;;;;23.28;46.12;101593.83;111058;1262;13218;-86
2022/09/02 02:45:11;;;;;;;;;3.00;2.50;;;;;23.28;46.22;101595.51;111078;1262;13075;-86
2022/09/02 02:47:39;;;;;;;;;5.00;3.00;;;;;23.28;46.03;101591.95;111030;1262;13145;-84
2022/09/02 02:50:06;;;;;;;;;2.00;2.00;;;;;23.26;45.96;101591.38;111075;1262;13127;-85
2022/09/02 02:52:34;;;;;;;;;2.00;2.00;;;;;23.28;46.06;101592.30;111106;1262;12884;-85
2022/09/02 02:55:01;;;;;;;;;3.00;3.00;;;;;23.29;46.08;101591.98;111086;1262;13245;-86
2022/09/02 02:57:29;;;;;;;;;3.00;3.00;;;;;23.28;45.90;101591.41;111063;1262;12933;-87
2022/09/02 02:59:57;;;;;;;;;3.00;3.00;;;;;23.27;45.91;101592.36;111044;1262;13388;-86
2022/09/02 03:02:24;;;;;;;;;2.00;2.00;;;;;23.27;46.06;101595.73;111037;1262;13257;-86
2022/09/02 03:04:53;;;;;;;;;2.00;2.00;;;;;23.27;45.99;101595.48;111046;1262;14849;-86
2022/09/02 03:07:20;;;;;;;;;2.00;2.00;;;;;23.29;46.02;101599.46;110992;1262;10458;-85
2022/09/02 03:09:47;;;;;;;;;1.50;1.50;;;;;23.27;45.86;101595.10;110961;1262;13112;-86
2022/09/02 03:12:15;;;;;;;;;5.00;3.00;;;;;23.27;45.98;101597.35;110966;1262;13069;-85
2022/09/02 03:14:43;;;;;;;;;3.00;3.00;;;;;23.28;45.91;101597.05;111029;1261;15078;-86
2022/09/02 03:17:11;;;;;;;;;2.33;2.33;;;;;23.27;46.01;101597.84;111022;1262;13371;-86
2022/09/02 03:19:38;;;;;;;;;3.00;3.00;;;;;23.25;45.97;101594.94;111119;1261;13200;-86
2022/09/02 03:22:05;;;;;;;;;2.00;2.00;;;;;23.26;45.91;101601.42;110981;1262;12956;-84
2022/09/02 03:24:33;;;;;;;;;2.00;2.00;;;;;23.29;45.97;101600.39;111096;1262;13115;-85
2022/09/02 03:27:00;;;;;;;;;2.67;2.67;;;;;23.29;45.85;101602.92;111025;1262;13204;-85
2022/09/02 03:29:28;;;;;;;;;3.00;2.00;;;;;23.28;45.83;101601.69;111058;1262;13186;-84
2022/09/02 03:31:55;;;;;;;;;2.00;2.00;;;;;23.29;45.81;101603.06;111031;1262;13292;-84
2022/09/02 03:34:23;;;;;;;;;2.67;2.67;;;;;23.29;45.79;101602.17;111237;1261;13298;-84
2022/09/02 03:36:50;;;;;;;;;2.67;2.00;;;;;23.29;45.71;101601.23;111876;1262;12884;-84
2022/09/02 03:39:19;;;;;;;;;3.00;3.00;;;;;23.28;45.77;101601.10;111752;1262;16661;-85
2022/09/02 03:41:47;;;;;;;;;2.33;2.33;;;;;23.29;45.76;101603.39;111072;1262;13156;-85
2022/09/02 03:44:14;;;;;;;;;2.00;2.00;;;;;23.29;45.72;101602.41;111055;1262;13099;-85
2022/09/02 03:46:42;;;;;;;;;2.33;2.33;;;;;23.29;45.76;101605.15;111148;1261;10616;-86
2022/09/02 03:49:09;;;;;;;;;2.67;2.67;;;;;23.27;45.73;101607.64;111085;1262;15328;-86
2022/09/02 03:51:36;;;;;;;;;3.00;3.00;;;;;23.28;45.81;101607.55;111123;1262;13032;-84
2022/09/02 03:54:05;;;;;;;;;2.00;2.00;;;;;23.29;45.76;101612.96;111059;1262;13365;-85
2022/09/02 03:56:33;;;;;;;;;2.00;2.00;;;;;23.29;45.69;101615.54;111080;1262;13069;-85
2022/09/02 03:59:00;;;;;;;;;5.00;5.00;;;;;23.30;45.67;101616.48;111099;1262;13205;-84
2022/09/02 04:01:27;;;;;;;;;3.00;2.33;;;;;23.29;45.75;101617.52;111112;1262;13230;-86
2022/09/02 04:03:55;;;;;;;;;2.50;2.50;;;;;23.30;45.62;101611.40;111069;1262;12666;-84
2022/09/02 04:06:23;;;;;;;;;2.33;2.33;;;;;23.30;45.69;101612.60;111087;1262;13246;-85
2022/09/02 04:08:51;;;;;;;;;2.00;2.00;;;;;23.31;45.58;101618.91;111111;1262;13064;-85
2022/09/02 04:11:18;;;;;;;;;4.33;3.00;;;;;23.29;45.69;101621.48;111023;1262;13098;-84
2022/09/02 04:13:45;;;;;;;;;2.00;2.00;;;;;23.30;45.65;101619.98;111087;1262;13334;-84
2022/09/02 04:16:13;;;;;;;;;2.33;2.33;;;;;23.29;45.59;101619.63;111038;1262;16797;-84
2022/09/02 04:18:40;;;;;;;;;3.00;2.00;;;;;23.28;45.65;101621.84;111049;1262;12969;-84
2022/09/02 04:21:07;;;;;;;;;3.00;2.00;;;;;23.28;45.65;101625.42;111054;1262;13080;-86
2022/09/02 04:23:35;;;;;;;;;2.00;2.00;;;;;23.29;45.56;101626.02;111044;1261;13068;-87
2022/09/02 04:26:02;;;;;;;;;3.00;3.00;;;;;23.29;45.62;101626.95;111047;1262;12645;-83
2022/09/02 04:28:29;;;;;;;;;2.67;2.67;;;;;23.28;45.50;101631.65;111076;1262;13288;-85
2022/09/02 04:30:56;;;;;;;;;5.33;3.67;;;;;23.29;45.58;101631.47;110939;1262;12988;-85
2022/09/02 04:33:24;;;;;;;;;4.33;4.33;;;;;23.29;45.51;101630.45;111150;1262;10501;-85
2022/09/02 04:35:51;;;;;;;;;3.00;2.50;;;;;23.29;45.44;101625.92;111054;1262;12046;-85
2022/09/02 04:38:18;;;;;;;;;2.67;2.67;;;;;23.30;45.59;101629.23;111100;1262;13117;-85
2022/09/02 04:40:46;;;;;;;;;2.00;2.00;;;;;23.30;45.50;101629.77;111153;1261;13062;-84
2022/09/02 04:43:13;;;;;;;;;2.00;2.00;;;;;23.31;45.49;101627.34;111063;1262;13184;-84
2022/09/02 04:45:40;;;;;;;;;3.00;3.00;;;;;23.28;45.42;101627.61;111035;1262;13118;-84
2022/09/02 04:48:08;;;;;;;;;3.00;3.00;;;;;23.29;45.51;101628.25;111005;1262;13153;-85
2022/09/02 04:50:35;;;;;;;;;3.00;3.00;;;;;23.30;45.44;101631.64;111035;1262;13178;-85
2022/09/02 04:53:02;;;;;;;;;2.00;2.00;;;;;23.29;45.47;101633.38;111039;1262;12718;-85
2022/09/02 04:55:29;;;;;;;;;3.00;3.00;;;;;23.30;45.50;101631.09;111095;1262;13066;-85
2022/09/02 04:57:57;;;;;;;;;2.00;2.00;;;;;23.28;45.47;101638.76;111066;1262;13190;-84
2022/09/02 05:00:24;;;;;;;;;3.00;2.00;;;;;23.29;45.57;101636.98;111082;1262;13074;-84
2022/09/02 05:02:52;;;;;;;;;5.00;3.00;;;;;23.33;45.56;101637.70;111049;1262;13171;-86
2022/09/02 05:05:19;;;;;;;;;3.67;2.67;;;;;23.35;45.53;101643.46;111082;1262;13130;-86
2022/09/02 05:07:46;;;;;;;;;2.67;2.67;;;;;23.37;45.38;101641.22;111110;1262;13109;-85
2022/09/02 05:10:14;;;;;;;;;3.00;3.00;;;;;23.38;45.36;101641.77;111093;1262;13123;-84
2022/09/02 05:12:42;;;;;;;;;2.33;2.33;;;;;23.41;45.32;101644.35;111007;1262;13227;-83
2022/09/02 05:15:09;;;;;;;;;4.33;4.33;;;;;23.43;45.43;101645.84;111052;1262;12986;-84
2022/09/02 05:17:36;;;;;;;;;2.00;2.00;;;;;23.44;45.32;101639.88;110344;1262;978442;-86
2022/09/02 05:20:04;;;;;;;;;6.33;5.33;;;;;23.47;45.26;101645.88;111094;1262;10617;-84
2022/09/02 05:22:31;;;;;;;;;6.00;6.00;;;;;23.45;45.21;101642.10;110967;1262;11684;-85
2022/09/02 05:24:58;;;;;;;;;3.67;3.67;;;;;23.43;45.10;101638.73;110956;1262;13191;-85
2022/09/02 05:27:26;;;;;;;;;5.00;5.00;;;;;23.40;44.82;101636.31;111001;1262;13020;-85
2022/09/02 05:29:53;;;;;;;;;5.00;5.00;;;;;23.38;44.83;101635.67;111000;1262;10549;-86
2022/09/02 05:32:21;;;;;;;;;5.00;5.00;;;;;23.39;44.56;101640.60;111071;1262;16760;-86
2022/09/02 05:34:49;;;;;;;;;6.00;5.00;;;;;23.39;44.52;101639.55;111108;1262;13169;-87
2022/09/02 05:37:16;;;;;;;;;7.00;7.00;;;;;23.39;44.39;101640.98;111047;1261;13175;-85
2022/09/02 05:39:43;;;;;;;;;6.00;6.00;;;;;23.36;44.40;101642.56;111074;1262;13009;-85
2022/09/02 05:42:11;;;;;;;;;7.00;6.33;;;;;23.44;44.39;101640.25;111099;1261;17299;-85
2022/09/02 05:44:38;;;;;;;;;5.00;5.00;;;;;23.52;44.21;101640.78;111028;1262;12955;-86
2022/09/02 05:47:05;;;;;;;;;6.00;6.00;;;;;23.48;43.99;101636.00;111028;1262;13081;-84
2022/09/02 05:49:33;;;;;;;;;7.00;6.00;;;;;23.46;44.02;101642.36;111084;1262;14956;-84
2022/09/02 05:52:00;;;;;;;;;7.33;7.00;;;;;23.44;43.93;101639.70;111035;1262;13312;-86
2022/09/02 05:54:27;;;;;;;;;6.33;6.00;;;;;23.40;43.63;101644.16;110966;1262;13076;-87
2022/09/02 05:56:55;;;;;;;;;6.00;5.00;;;;;23.38;43.93;101643.70;110991;1262;13167;-86
2022/09/02 05:59:22;;;;;;;;;5.67;5.67;;;;;23.41;44.10;101644.77;111160;1261;13096;-88
2022/09/02 06:01:49;;;;;;;;;7.67;7.00;;;;;23.40;44.16;101645.63;111235;1261;13164;-86
2022/09/02 06:04:17;;;;;;;;;6.00;5.00;;;;;23.41;44.12;101646.38;110996;1262;13141;-83
2022/09/02 06:06:44;;;;;;;;;9.33;9.33;;;;;23.45;44.01;101643.61;111088;1262;13275;-83
2022/09/02 06:09:11;;;;;;;;;12.00;11.33;;;;;23.29;44.08;101646.23;111130;1262;13206;-82
2022/09/02 06:11:39;;;;;;;;;8.00;7.00;;;;;22.83;44.44;101645.33;111156;1262;13196;-82
2022/09/02 06:14:06;;;;;;;;;10.00;10.00;;;;;22.55;44.91;101645.50;111130;1261;16731;-81
2022/09/02 06:16:34;;;;;;;;;8.67;7.00;;;;;22.45;45.19;101646.84;111137;1262;12706;-82
2022/09/02 06:19:02;;;;;;;;;8.00;8.00;;;;;22.34;45.40;101645.20;111117;1262;13282;-84
2022/09/02 06:21:30;;;;;;;;;11.00;11.00;;;;;22.27;45.67;101644.22;111056;1262;15384;-82
2022/09/02 06:23:57;;;;;;;;;10.67;10.67;;;;;22.10;46.01;101642.12;111073;1261;13008;-81
2022/09/02 06:26:24;;;;;;;;;11.00;10.33;;;;;22.13;46.09;101640.77;111036;1262;13235;-79
2022/09/02 06:28:51;;;;;;;;;8.00;8.00;;;;;22.25;45.89;101641.64;111057;1262;13126;-81
2022/09/02 06:31:19;;;;;;;;;10.50;9.00;;;;;22.33;45.71;101643.00;111066;1262;13148;-81
2022/09/02 06:33:46;;;;;;;;;10.00;10.00;;;;;22.30;46.52;101644.42;111031;1262;13102;-81
2022/09/02 06:36:13;;;;;;;;;10.00;10.00;;;;;22.54;47.54;101645.46;111028;1262;13142;-82
2022/09/02 06:38:41;;;;;;;;;10.33;9.00;;;;;22.62;47.92;101646.91;111096;1262;13149;-82
2022/09/02 06:41:08;;;;;;;;;11.00;10.00;;;;;22.60;48.20;101646.05;111058;1261;13135;-83
2022/09/02 06:43:36;;;;;;;;;10.67;10.67;;;;;22.52;48.45;101649.55;111127;1262;13242;-83
2022/09/02 06:46:03;;;;;;;;;11.00;11.00;;;;;22.41;48.87;101651.98;111060;1262;13222;-83
2022/09/02 06:48:30;;;;;;;;;12.00;11.00;;;;;22.41;49.45;101654.85;111011;1262;13185;-81
2022/09/02 06:50:57;;;;;;;;;14.67;10.00;;;;;22.35;49.73;101652.60;111023;1262;15149;-82
2022/09/02 06:53:25;;;;;;;;;10.00;10.00;;;;;22.20;49.43;101652.74;111029;1262;13125;-82
2022/09/02 06:55:52;;;;;;;;;10.33;10.33;;;;;22.14;49.46;101650.86;111031;1262;13204;-84
2022/09/02 06:58:19;;;;;;;;;10.67;10.00;;;;;22.25;49.40;101650.82;111110;1262;13232;-85
2022/09/02 07:00:47;;;;;;;;;10.67;10.00;;;;;22.25;49.27;101649.13;111051;1262;13200;-82
2022/09/02 07:05:59;;;;;;;;;9.00;7.00;;;;;22.39;48.50;101650.30;111043;1262;14078;-81
2022/09/02 07:08:26;;;;;;;;;9.00;9.00;;;;;22.57;47.85;101648.98;111039;1262;13183;-83
2022/09/02 07:10:54;;;;;;;;;9.00;9.00;;;;;22.48;47.46;101651.03;110950;1262;13032;-81
2022/09/02 07:13:21;;;;;;;;;10.33;9.33;;;;;22.53;47.45;101652.33;110896;1262;11359;-84
2022/09/02 07:15:49;;;;;;;;;9.00;7.00;;;;;22.69;47.28;101651.30;110863;1262;13221;-83
2022/09/02 07:18:16;;;;;;;;;8.67;8.00;;;;;22.60;47.10;101654.21;110968;1262;13024;-83
2022/09/02 07:20:44;;;;;;;;;9.00;9.00;;;;;22.75;46.91;101651.92;111025;1261;13913;-83
2022/09/02 07:23:11;;;;;;;;;8.67;8.33;;;;;22.90;46.30;101655.02;110989;1262;13208;-82
2022/09/02 07:25:40;;;;;;;;;9.00;9.00;;;;;22.84;46.30;101655.81;111056;1262;13195;-81
2022/09/02 07:28:07;;;;;;;;;11.00;11.00;;;;;22.89;46.27;101652.94;110864;1262;13305;-81
2022/09/02 07:30:34;;;;;;;;;8.67;8.00;;;;;22.90;46.15;101653.30;110985;1262;13219;-83
2022/09/02 07:33:02;;;;;;;;;10.00;10.00;;;;;22.85;46.01;101651.51;111011;1262;13212;-83
2022/09/02 07:35:29;;;;;;;;;12.00;11.67;;;;;22.90;45.80;101651.84;111046;1261;14267;-82
2022/09/02 07:37:57;;;;;;;;;7.33;7.33;;;;;22.96;45.40;101649.84;111038;1262;13210;-83
2022/09/02 07:40:24;;;;;;;;;11.50;11.00;;;;;23.01;45.07;101655.65;111057;1262;13083;-85
2022/09/02 07:42:52;;;;;;;;;12.00;11.00;;;;;22.92;44.95;101656.46;110993;1264;13107;-86
2022/09/02 07:45:19;;;;;;;;;7.50;7.50;;;;;22.45;44.88;101661.40;111011;1262;13588;-86
2022/09/02 07:47:47;;;;;;;;;7.67;7.67;;;;;22.18;45.33;101658.83;111001;1262;10502;-87
2022/09/02 07:50:15;;;;;;;;;9.00;9.00;;;;;22.08;45.59;101660.09;111045;1261;13263;-85
2022/09/02 07:52:43;;;;;;;;;7.00;7.00;;;;;22.33;45.49;101658.70;111072;1261;13195;-82
2022/09/02 07:55:13;;;;;;;;;8.33;8.33;;;;;21.95;45.74;101659.98;110845;1262;13116;-83
2022/09/02 07:57:40;;;;;;;;;7.00;6.00;;;;;21.98;45.42;101659.85;110902;1261;13847;-82
2022/09/02 08:00:07;;;;;;;;;6.00;6.00;;;;;22.27;44.83;101665.52;110820;1262;13053;-82
2022/09/02 08:02:35;;;;;;;;;5.00;5.00;;;;;22.32;44.48;101661.30;111004;1261;13075;-82
2022/09/02 08:05:03;;;;;;;;;6.00;6.00;;;;;22.48;44.69;101661.77;111282;1262;13067;-82
2022/09/02 08:07:31;;;;;;;;;5.00;5.00;;;;;22.32;44.59;101667.85;111101;1262;13190;-82
2022/09/02 08:09:59;;;;;;;;;5.00;5.00;;;;;21.78;44.62;101668.67;111025;1262;12866;-84
2022/09/02 08:12:27;;;;;;;;;3.00;2.00;;;;;21.84;44.71;101662.23;111042;1262;13100;-81
2022/09/02 08:14:57;;;;;;;;;3.00;3.00;;;;;21.71;44.62;101662.52;111039;1261;12861;-81
2022/09/02 08:17:24;;;;;;;;;2.00;2.00;;;;;21.95;44.11;101660.69;111000;1262;12972;-82
2022/09/02 08:19:52;;;;;;;;;5.00;3.00;;;;;21.71;44.12;101658.65;111158;1262;12943;-82
2022/09/02 08:22:19;;;;;;;;;3.00;3.00;;;;;21.67;44.35;101655.89;111047;1262;13234;-82
2022/09/02 08:24:47;;;;;;;;;4.33;4.33;;;;;22.17;43.95;101658.49;111082;1261;18013;-82
2022/09/02 08:27:14;;;;;;;;;5.00;3.00;;;;;22.38;43.75;101656.79;111063;1262;13002;-83
2022/09/02 08:29:41;;;;;;;;;3.67;3.33;;;;;21.41;44.31;101659.10;111114;1262;13595;-82
2022/09/02 08:32:09;;;;;;;;;2.00;2.00;;;;;21.33;44.63;101656.81;111051;1262;13111;-83
2022/09/02 08:34:36;;;;;;;;;2.00;2.00;;;;;21.47;44.19;101654.46;111092;1262;13214;-82
2022/09/02 08:37:05;;;;;;;;;3.00;3.00;;;;;21.73;43.94;101655.07;111083;1261;12958;-82
2022/09/02 08:39:32;;;;;;;;;3.67;3.00;;;;;22.04;43.51;101655.02;111042;1262;12811;-84
2022/09/02 08:41:59;;;;;;;;;3.00;3.00;;;;;22.30;43.17;101653.50;111053;1262;12834;-82
2022/09/02 08:44:27;;;;;;;;;2.67;2.00;;;;;22.11;43.02;101656.03;111008;1262;13224;-84
2022/09/02 08:46:54;;;;;;;;;2.33;2.33;;;;;21.80;43.16;101654.98;111074;1262;13096;-81
2022/09/02 08:49:22;;;;;;;;;2.00;2.00;;;;;21.42;43.76;101659.56;110999;1262;17722;-82
2022/09/02 08:51:49;;;;;;;;;3.00;3.00;;;;;21.73;43.42;101655.90;111024;1262;13123;-83
2022/09/02 08:54:16;;;;;;;;;3.00;3.00;;;;;21.72;43.26;101649.85;111056;1261;13150;-84
2022/09/02 08:56:44;;;;;;;;;3.00;2.67;;;;;21.77;43.50;101647.48;111048;1262;13078;-81
2022/09/02 08:59:12;;;;;;;;;2.00;2.00;;;;;21.87;43.02;101649.90;111078;1262;13124;-83
2022/09/02 09:01:39;;;;;;;;;2.67;2.67;;;;;21.81;42.81;101645.64;111034;1262;13146;-83
2022/09/02 09:04:10;;;;;;;;;3.00;3.00;;;;;21.95;42.79;101646.15;110964;1262;13106;-83
2022/09/02 09:06:37;;;;;;;;;3.67;3.00;;;;;21.95;42.82;101647.18;110996;1262;12942;-82
2022/09/02 09:09:05;;;;;;;;;3.00;3.00;;;;;21.92;42.80;101650.77;111053;1262;13197;-82
2022/09/02 09:11:32;;;;;;;;;2.00;2.00;;;;;21.23;43.31;101649.84;110874;1262;12942;-82
2022/09/02 09:13:59;;;;;;;;;2.00;2.00;;;;;20.75;44.30;101647.67;111035;1262;13201;-81
2022/09/02 09:16:27;;;;;;;;;2.00;2.00;;;;;21.30;43.92;101642.52;111086;1262;14601;-82
2022/09/02 09:18:54;;;;;;;;;3.00;3.00;;;;;21.59;43.47;101642.50;111034;1262;12982;-82
2022/09/02 09:21:23;;;;;;;;;2.00;2.00;;;;;21.66;43.55;101640.52;110958;1261;13043;-83
2022/09/02 09:23:52;;;;;;;;;2.00;2.00;;;;;22.10;43.30;101640.38;111070;1262;13113;-83
2022/09/02 09:26:20;;;;;;;;;2.00;2.00;;;;;22.14;43.12;101640.47;111064;1262;12634;-83
2022/09/02 09:28:47;;;;;;;;;2.00;2.00;;;;;22.15;42.36;101640.92;110999;1262;12958;-85
2022/09/02 09:31:15;;;;;;;;;2.00;2.00;;;;;21.84;42.18;101635.42;111051;1262;13071;-84
2022/09/02 09:33:42;;;;;;;;;3.00;3.00;;;;;21.38;42.88;101637.73;111056;1261;13172;-84
2022/09/02 09:36:10;;;;;;;;;2.00;2.00;;;;;21.40;43.09;101634.10;111060;1262;13166;-82
2022/09/02 09:38:37;;;;;;;;;3.00;3.00;;;;;21.75;42.93;101632.12;111031;1262;13190;-78
2022/09/02 09:41:06;;;;;;;;;3.00;3.00;;;;;22.23;42.32;101626.91;111093;1262;12744;-83
2022/09/02 09:43:33;;;;;;;;;2.00;2.00;;;;;22.32;41.94;101631.87;111056;1262;13157;-82
2022/09/02 09:46:00;;;;;;;;;3.00;3.00;;;;;22.26;41.70;101632.13;110992;1262;13049;-82
2022/09/02 09:48:30;;;;;;;;;2.00;2.00;;;;;22.20;41.42;101632.89;111063;1262;13091;-81
2022/09/02 09:50:57;;;;;;;;;2.00;2.00;;;;;21.67;41.54;101630.30;110962;1262;13157;-81
2022/09/02 09:53:25;;;;;;;;;2.00;2.00;;;;;21.97;41.48;101626.96;110850;1262;15132;-82
2022/09/02 09:55:52;;;;;;;;;5.00;5.00;;;;;22.35;41.13;101619.66;111037;1262;13119;-81
2022/09/02 09:58:20;;;;;;;;;3.00;3.00;;;;;22.56;40.67;101614.41;110971;1262;13090;-83
2022/09/02 10:00:50;;;;;;;;;5.00;3.00;;;;;22.61;40.58;101610.05;111060;1262;13147;-82
2022/09/02 10:03:18;;;;;;;;;2.33;2.33;;;;;22.57;40.64;101613.61;111074;1261;13110;-83
2022/09/02 10:05:45;;;;;;;;;2.00;2.00;;;;;22.52;40.57;101610.72;111032;1262;12905;-81
2022/09/02 10:08:12;;;;;;;;;3.00;2.67;;;;;22.60;40.52;101609.95;111053;1262;13190;-83
2022/09/02 10:10:40;;;;;;;;;2.00;2.00;;;;;22.48;40.71;101614.02;111060;1262;12610;-81
2022/09/02 10:13:07;;;;;;;;;2.00;2.00;;;;;22.50;40.82;101617.99;111031;1261;12996;-83
2022/09/02 10:15:35;;;;;;;;;2.00;2.00;;;;;22.39;40.75;101621.20;111034;1262;13003;-82
2022/09/02 10:18:04;;;;;;;;;2.33;2.33;;;;;22.21;40.73;101617.54;110950;1262;13188;-83
2022/09/02 10:20:31;;;;;;;;;2.00;2.00;;;;;22.29;40.33;101613.98;110919;1262;12612;-83
2022/09/02 10:22:59;;;;;;;;;2.00;2.00;;;;;22.12;40.08;101613.25;111080;1262;13108;-82
2022/09/02 10:25:26;;;;;;;;;2.67;2.67;;;;;22.15;40.24;101611.42;111078;1261;13182;-83
2022/09/02 10:27:54;;;;;;;;;2.00;2.00;;;;;22.18;40.22;101613.87;111020;1262;19586;-83
2022/09/02 10:30:22;;;;;;;;;3.00;3.00;;;;;22.31;39.98;101608.24;111027;1262;12790;-81
2022/09/02 10:32:49;;;;;;;;;2.00;2.00;;;;;22.26;39.75;101602.29;111028;1262;12583;-83
2022/09/02 10:35:16;;;;;;;;;2.00;2.00;;;;;22.28;39.88;101600.58;111033;1261;12710;-81
2022/09/02 10:37:44;;;;;;;;;2.00;2.00;;;;;21.88;39.80;101603.74;111031;1262;13473;-83
2022/09/02 10:40:12;;;;;;;;;2.33;2.33;;;;;21.76;40.26;101602.36;111046;1262;14649;-81
2022/09/02 10:42:40;;;;;;;;;2.00;2.00;;;;;22.03;40.19;101595.77;111018;1262;13379;-82
2022/09/02 10:45:07;;;;;;;;;2.00;2.00;;;;;22.19;39.95;101597.77;111076;1262;12949;-83
2022/09/02 10:47:34;;;;;;;;;2.00;2.00;;;;;22.10;40.01;101595.44;111136;1262;12640;-85
2022/09/02 10:50:02;;;;;;;;;2.00;2.00;;;;;22.10;40.14;101593.95;111143;1262;13110;-85
2022/09/02 10:52:29;;;;;;;;;2.00;2.00;;;;;22.27;39.77;101595.77;111176;1262;12690;-83
2022/09/02 10:54:56;;;;;;;;;2.00;2.00;;;;;22.40;39.65;101588.95;111090;1262;13068;-82
2022/09/02 10:57:24;;;;;;;;;2.00;2.00;;;;;22.41;39.51;101590.20;111174;1261;13291;-82
2022/09/02 10:59:51;;;;;;;;;2.00;2.00;;;;;22.47;39.37;101585.92;111242;1262;13206;-82
2022/09/02 11:02:18;;;;;;;;;1.33;1.33;;;;;22.36;38.85;101586.74;110976;1262;12921;-82
2022/09/02 11:04:46;;;;;;;;;2.00;2.00;;;;;22.27;38.94;101586.84;111117;1262;16316;-84
2022/09/02 11:07:13;;;;;;;;;2.00;2.00;;;;;22.41;38.92;101578.70;111111;1262;13140;-82
2022/09/02 11:09:40;;;;;;;;;1.00;1.00;;;;;22.36;39.18;101585.34;111139;1261;13106;-81
2022/09/02 11:12:09;;;;;;;;;2.00;2.00;;;;;22.27;39.43;101583.20;111098;1262;13065;-82
2022/09/02 11:14:36;;;;;;;;;2.00;2.00;;;;;22.45;39.39;101581.27;111118;1262;13094;-83
2022/09/02 11:17:03;;;;;;;;;2.00;2.00;;;;;22.61;39.40;101575.99;111125;1262;13297;-82
2022/09/02 11:19:31;;;;;;;;;2.00;2.00;;;;;22.60;39.26;101579.21;111109;1262;17732;-81